METAR Data
IDs: Format: Raw Decoded Include TAF

Data at: 0237 UTC 29 Nov 2020

METAR for:KOTM (Ottumwa Industrial, IA, US)
Text:KOTM 290153Z AUTO 21009KT 10SM CLR 07/01 A3004 RMK AO2 SLP178 T00720006
Temperature: 7.2°C ( 45°F)
Dewpoint: 0.6°C ( 33°F) [RH = 63%]
Pressure (altimeter):30.04 inches Hg (1017.4 mb) [Sea level pressure: 1017.8 mb]
Winds:from the SSW (210 degrees) at 10 MPH (9 knots; 4.6 m/s)
Visibility:10 or more sm (16+ km)
Ceiling:at least 12,000 feet AGL
Clouds:sky clear below 12,000 feet AGL
QC Flag:automated observation with no human augmentation